Terminal Aerodrome Forecast
Issued by NWS

Home | Current Version | Previous Version | Text Only | Print | Product List | Glossary On
Versions: 1 2 3 4 5 6 7 8 9 10 11 12 13 14 15 16 17 18 19 20 21 22 23
000
FTUS43 KGRB 290543
TAFMTW
TAF
KMTW 290543Z 2906/3006 18005KT 6SM -RA SCT015 OVC050
      TEMPO 2906/2910 4SM -RA BR SCT005 OVC015
     FM291000 VRB03KT 4SM -RA BR BKN005 OVC018
     FM291500 15005KT 5SM BR VCSH BKN010 OVC020
     FM292200 17005KT P6SM FEW025 BKN050
     FM300000 VRB03KT P6SM FEW050=

USA.gov is the U.S. government's official web portal to all federal, state and local government web resources and services.